createdAt,value
2019-06-08T00:00:15.292Z,87.70
2019-06-08T00:02:43.530Z,88.10
2019-06-08T00:05:12.575Z,88.70
2019-06-08T00:07:41.110Z,88.80
2019-06-08T00:10:09.969Z,89.20
2019-06-08T00:12:38.440Z,89.30
2019-06-08T00:15:07.101Z,89.50
2019-06-08T00:17:38.768Z,89.80
2019-06-08T00:20:07.138Z,90.00
2019-06-08T00:22:35.553Z,90.20
2019-06-08T00:25:04.738Z,90.20
2019-06-08T00:27:33.241Z,90.20
2019-06-08T00:30:01.860Z,90.20
2019-06-08T00:32:30.392Z,90.20
2019-06-08T00:34:58.809Z,90.20
2019-06-08T00:37:27.312Z,90.20
2019-06-08T00:39:55.737Z,90.20
2019-06-08T00:42:25.437Z,90.10
2019-06-08T00:44:54.061Z,90.10
2019-06-08T00:47:22.684Z,90.10
2019-06-08T00:49:51.220Z,90.20
2019-06-08T00:52:20.959Z,90.30
2019-06-08T00:54:49.662Z,90.20
2019-06-08T00:57:18.088Z,90.10
2019-06-08T00:59:46.525Z,90.10
2019-06-08T01:02:14.958Z,90.00
2019-06-08T01:05:02.717Z,90.00
2019-06-08T01:07:31.146Z,90.00
2019-06-08T01:09:59.873Z,90.00
2019-06-08T01:12:28.998Z,90.00
2019-06-08T01:14:57.537Z,89.90
2019-06-08T01:17:27.285Z,89.90
2019-06-08T01:19:56.207Z,89.80
2019-06-08T01:22:25.548Z,89.80
2019-06-08T01:24:54.178Z,89.50
2019-06-08T01:27:23.841Z,89.00
2019-06-08T01:29:52.538Z,89.50
2019-06-08T01:32:22.209Z,89.10
2019-06-08T01:34:50.762Z,89.30
2019-06-08T01:37:19.183Z,89.30
2019-06-08T01:39:47.682Z,88.90
2019-06-08T01:42:16.115Z,89.00
2019-06-08T01:44:44.539Z,89.00
2019-06-08T01:47:12.955Z,88.50
2019-06-08T01:49:41.383Z,88.20
2019-06-08T01:52:09.807Z,88.30
2019-06-08T01:54:38.248Z,88.20
2019-06-08T01:57:06.687Z,88.40
2019-06-08T01:59:35.123Z,88.20
2019-06-08T02:02:03.547Z,87.50
2019-06-08T02:04:33.211Z,87.10
2019-06-08T02:07:02.139Z,87.20
2019-06-08T02:09:30.673Z,86.70
2019-06-08T02:11:59.072Z,86.90
2019-06-08T02:14:27.495Z,86.20
2019-06-08T02:16:55.955Z,86.10
2019-06-08T02:19:24.396Z,86.10
2019-06-08T02:21:52.829Z,86.00
2019-06-08T02:24:21.272Z,86.00
2019-06-08T02:26:49.693Z,86.00
2019-06-08T02:29:18.200Z,86.10
2019-06-08T02:31:48.231Z,85.50
2019-06-08T02:34:16.911Z,85.20
2019-06-08T02:36:45.332Z,84.90
2019-06-08T02:39:13.771Z,85.30
2019-06-08T02:41:42.187Z,85.20
2019-06-08T02:44:10.697Z,85.40
2019-06-08T02:46:40.405Z,85.10
2019-06-08T02:49:09.242Z,85.00
2019-06-08T02:51:38.356Z,84.50
2019-06-08T02:54:06.766Z,85.00
2019-06-08T02:56:36.678Z,85.20
2019-06-08T02:59:05.795Z,85.10
2019-06-08T03:01:36.019Z,85.30
2019-06-08T03:04:06.030Z,85.20
2019-06-08T03:06:39.423Z,85.20
2019-06-08T03:09:08.481Z,85.30
2019-06-08T03:11:37.174Z,84.90
2019-06-08T03:14:07.194Z,85.00
2019-06-08T03:16:36.410Z,85.10
2019-06-08T03:19:20.590Z,85.00
2019-06-08T03:21:36.832Z,85.10
2019-06-08T03:24:25.460Z,84.90
2019-06-08T03:26:53.875Z,85.20
2019-06-08T03:29:22.321Z,85.40
2019-06-08T03:31:55.867Z,85.40
2019-06-08T03:34:20.903Z,85.10
2019-06-08T03:36:56.023Z,84.90
2019-06-08T03:39:19.797Z,85.10
2019-06-08T03:41:48.243Z,84.90
2019-06-08T03:44:16.653Z,84.90
2019-06-08T03:46:46.000Z,84.80
2019-06-08T03:49:14.614Z,85.00
2019-06-08T03:51:46.192Z,85.10
2019-06-08T03:54:13.182Z,85.20
2019-06-08T03:56:42.175Z,85.10
2019-06-08T03:59:11.159Z,85.10
2019-06-08T04:01:39.816Z,85.00
2019-06-08T04:04:08.777Z,85.30
2019-06-08T04:06:37.667Z,85.60
2019-06-08T04:09:07.236Z,85.30
2019-06-08T04:11:35.646Z,85.60
2019-06-08T04:14:04.422Z,85.90
2019-06-08T04:16:32.842Z,86.40
2019-06-08T04:19:01.279Z,86.00
2019-06-08T04:21:29.727Z,86.00
2019-06-08T04:23:58.158Z,86.40
2019-06-08T04:26:26.570Z,86.60
2019-06-08T04:28:55.018Z,86.10
2019-06-08T04:31:23.430Z,85.90
2019-06-08T04:33:51.851Z,86.00
2019-06-08T04:36:20.290Z,86.30
2019-06-08T04:38:50.245Z,86.30
2019-06-08T04:41:18.824Z,86.30
2019-06-08T04:43:49.554Z,86.60
2019-06-08T04:46:17.404Z,87.10
2019-06-08T04:48:47.408Z,87.10
2019-06-08T04:51:15.973Z,87.20
2019-06-08T04:53:45.543Z,87.60
2019-06-08T04:56:14.867Z,88.00
2019-06-08T04:58:44.733Z,88.00
2019-06-08T05:01:13.425Z,88.10
2019-06-08T05:03:43.322Z,88.40
2019-06-08T05:06:12.048Z,88.70
2019-06-08T05:08:40.950Z,88.60
2019-06-08T05:11:09.493Z,88.40
2019-06-08T05:13:39.122Z,88.40
2019-06-08T05:16:07.829Z,88.20
2019-06-08T05:18:36.257Z,88.00
2019-06-08T05:21:04.694Z,87.60
2019-06-08T05:23:33.118Z,87.30
2019-06-08T05:26:01.546Z,87.50
2019-06-08T05:28:29.975Z,87.70
2019-06-08T05:30:58.389Z,87.60
2019-06-08T05:33:26.830Z,86.80
2019-06-08T05:35:55.277Z,87.50
2019-06-08T05:38:23.690Z,87.70
2019-06-08T05:40:52.107Z,87.80
2019-06-08T05:43:20.550Z,87.80
2019-06-08T05:45:49.961Z,87.80
2019-06-08T05:48:18.570Z,87.30
2019-06-08T05:51:00.194Z,87.80
2019-06-08T05:53:17.154Z,87.60
2019-06-08T05:55:46.104Z,87.80
2019-06-08T05:58:15.083Z,88.00
2019-06-08T06:00:44.204Z,88.10
2019-06-08T06:03:12.863Z,88.30
2019-06-08T06:05:47.195Z,88.60
2019-06-08T06:08:19.014Z,88.30
2019-06-08T06:10:46.920Z,88.80
2019-06-08T06:13:15.526Z,88.30
2019-06-08T06:15:44.927Z,88.60
2019-06-08T06:18:13.530Z,89.00
2019-06-08T06:20:43.247Z,89.50
2019-06-08T06:23:11.983Z,89.60
2019-06-08T06:25:41.422Z,90.00
2019-06-08T06:28:10.097Z,90.40
2019-06-08T06:30:38.529Z,90.70
2019-06-08T06:33:06.966Z,91.00
2019-06-08T06:35:35.390Z,91.30
2019-06-08T06:38:03.899Z,91.60
2019-06-08T06:40:52.202Z,91.90
2019-06-08T06:43:42.117Z,92.10
2019-06-08T06:46:10.463Z,92.20
2019-06-08T06:48:38.882Z,92.60
2019-06-08T06:51:07.311Z,92.40
2019-06-08T06:53:35.743Z,92.70
2019-06-08T06:56:04.267Z,93.10
2019-06-08T06:58:32.690Z,93.30
2019-06-08T07:01:01.110Z,93.70
2019-06-08T07:03:29.520Z,93.60
2019-06-08T07:05:57.959Z,93.60
2019-06-08T07:08:26.371Z,93.60
2019-06-08T07:10:55.195Z,93.70
2019-06-08T07:13:23.925Z,93.40
2019-06-08T07:15:55.968Z,93.30
2019-06-08T07:18:22.504Z,93.60
2019-06-08T07:20:52.239Z,93.70
2019-06-08T07:23:20.956Z,93.90
2019-06-08T07:25:50.447Z,93.90
2019-06-08T07:28:19.184Z,93.90
2019-06-08T07:30:48.778Z,93.90
2019-06-08T07:33:17.327Z,93.90
2019-06-08T07:35:46.994Z,94.10
2019-06-08T07:38:15.888Z,94.10
2019-06-08T07:40:44.317Z,94.30
2019-06-08T07:43:12.735Z,94.40
2019-06-08T07:45:41.173Z,94.40
2019-06-08T07:48:09.588Z,94.40
2019-06-08T07:50:37.998Z,94.50
2019-06-08T07:53:06.429Z,94.50
2019-06-08T07:55:34.869Z,94.30
2019-06-08T07:58:03.286Z,94.30
2019-06-08T08:00:31.774Z,94.20
2019-06-08T08:03:00.354Z,94.20
2019-06-08T08:05:28.766Z,94.10
2019-06-08T08:07:57.210Z,94.10
2019-06-08T08:10:25.620Z,94.00
2019-06-08T08:12:54.774Z,94.10
2019-06-08T08:15:23.407Z,94.00
2019-06-08T08:17:52.604Z,94.10
2019-06-08T08:20:22.024Z,93.10
2019-06-08T08:22:56.051Z,92.90
2019-06-08T08:25:20.604Z,92.80
2019-06-08T08:27:50.253Z,93.10
2019-06-08T08:30:20.343Z,92.80
2019-06-08T08:32:50.796Z,92.50
2019-06-08T08:35:19.309Z,92.30
2019-06-08T08:37:53.645Z,92.30
2019-06-08T08:40:18.029Z,92.40
2019-06-08T08:42:48.271Z,92.70
2019-06-08T08:45:18.297Z,92.70
2019-06-08T08:47:48.509Z,92.40
2019-06-08T08:50:18.394Z,92.10
2019-06-08T08:52:47.730Z,92.30
2019-06-08T08:55:20.247Z,92.20
2019-06-08T08:57:48.415Z,92.10
2019-06-08T09:00:18.132Z,92.10
2019-06-08T09:02:48.915Z,92.30
2019-06-08T09:05:18.155Z,92.40
2019-06-08T09:07:48.214Z,92.60
2019-06-08T09:10:18.379Z,92.20
2019-06-08T09:12:48.512Z,91.90
2019-06-08T09:15:19.254Z,91.70
2019-06-08T09:17:48.275Z,91.40
2019-06-08T09:20:19.347Z,91.20
2019-06-08T09:22:53.991Z,91.10
2019-06-08T09:25:18.256Z,91.20
2019-06-08T09:27:48.168Z,91.10
2019-06-08T09:30:18.358Z,90.80
2019-06-08T09:32:47.822Z,90.90
2019-06-08T09:35:18.638Z,91.10
2019-06-08T09:37:48.579Z,91.10
2019-06-08T09:40:17.374Z,90.70
2019-06-08T09:42:45.861Z,90.30
2019-06-08T09:45:14.542Z,90.30
2019-06-08T09:47:43.041Z,88.90
2019-06-08T09:50:11.672Z,88.40
2019-06-08T09:52:41.395Z,87.60
2019-06-08T09:55:10.678Z,86.90
2019-06-08T09:57:39.365Z,87.40
2019-06-08T10:00:17.909Z,86.30
2019-06-08T10:02:39.389Z,85.00
2019-06-08T10:05:08.015Z,85.90
2019-06-08T10:07:38.810Z,86.90
2019-06-08T10:10:25.974Z,85.90
2019-06-08T10:12:54.652Z,87.20
2019-06-08T10:15:23.370Z,87.20
2019-06-08T10:17:51.967Z,87.80
2019-06-08T10:20:20.525Z,88.00
2019-06-08T10:22:50.520Z,88.20
2019-06-08T10:25:19.107Z,87.10
2019-06-08T10:27:47.528Z,86.60
2019-06-08T10:30:18.051Z,86.00
2019-06-08T10:32:48.001Z,84.40
2019-06-08T10:35:18.519Z,83.50
2019-06-08T10:37:47.872Z,81.70
2019-06-08T10:40:18.707Z,82.90
2019-06-08T10:42:48.249Z,83.10
2019-06-08T10:45:18.522Z,84.50
2019-06-08T10:47:47.915Z,84.30
2019-06-08T10:50:19.419Z,84.10
2019-06-08T10:52:48.176Z,86.40
2019-06-08T10:55:18.025Z,86.90
2019-06-08T10:57:47.755Z,86.20
2019-06-08T11:00:24.052Z,86.50
2019-06-08T11:02:51.888Z,85.50
2019-06-08T11:05:20.371Z,84.90
2019-06-08T11:07:48.819Z,86.40
2019-06-08T11:10:19.106Z,87.70
2019-06-08T11:12:48.548Z,89.70
2019-06-08T11:15:20.108Z,87.60
2019-06-08T11:17:48.548Z,86.90
2019-06-08T11:20:16.959Z,84.50
2019-06-08T11:22:49.770Z,84.20
2019-06-08T11:25:17.317Z,81.90
2019-06-08T11:27:47.520Z,81.60
2019-06-08T11:30:23.548Z,81.60
2019-06-08T11:32:48.075Z,81.20
2019-06-08T11:35:17.711Z,80.80
2019-06-08T11:37:48.709Z,81.20
2019-06-08T11:40:20.324Z,78.70
2019-06-08T11:42:48.538Z,78.80
2019-06-08T11:45:17.826Z,80.10
2019-06-08T11:47:48.398Z,79.30
2019-06-08T11:50:18.304Z,79.00
2019-06-08T11:52:49.196Z,79.70
2019-06-08T11:55:18.124Z,79.70
2019-06-08T11:57:48.786Z,79.50
2019-06-08T12:01:00.785Z,79.70
2019-06-08T12:03:27.660Z,79.90
2019-06-08T12:05:58.327Z,81.60
2019-06-08T12:08:28.530Z,82.70
2019-06-08T12:11:01.170Z,82.30
2019-06-08T12:13:27.890Z,82.10
2019-06-08T12:15:58.738Z,82.40
2019-06-08T12:18:26.781Z,83.00
2019-06-08T12:20:55.190Z,82.90
2019-06-08T12:23:23.598Z,82.90
2019-06-08T12:25:52.027Z,84.00
2019-06-08T12:28:20.450Z,85.50
2019-06-08T12:30:48.894Z,87.50
2019-06-08T12:36:17.868Z,88.90
2019-06-08T12:38:48.546Z,86.50
2019-06-08T12:41:16.286Z,85.10
2019-06-08T12:44:04.483Z,84.40
2019-06-08T12:46:33.042Z,82.10
2019-06-08T12:49:01.523Z,80.40
2019-06-08T12:51:29.926Z,80.10
2019-06-08T12:54:00.268Z,79.20
2019-06-08T12:56:28.861Z,78.90
2019-06-08T12:58:57.897Z,77.30
2019-06-08T13:01:28.211Z,76.80
2019-06-08T13:03:58.088Z,75.30
2019-06-08T13:06:28.331Z,75.50
2019-06-08T13:08:57.778Z,76.00
2019-06-08T13:11:28.267Z,75.70
2019-06-08T13:13:56.763Z,76.80
2019-06-08T13:16:25.282Z,78.50
2019-06-08T13:18:53.719Z,78.80
2019-06-08T13:21:34.275Z,78.40
2019-06-08T13:23:52.324Z,79.40
2019-06-08T13:26:27.495Z,78.70
2019-06-08T13:28:50.924Z,78.70
2019-06-08T13:31:22.594Z,77.80
2019-06-08T13:33:49.508Z,76.80
2019-06-08T13:36:22.058Z,75.90
2019-06-08T13:38:48.191Z,75.40
2019-06-08T13:41:19.527Z,74.60
2019-06-08T13:43:47.790Z,73.50
2019-06-08T13:46:18.607Z,72.40
2019-06-08T13:48:48.193Z,73.40
2019-06-08T13:51:19.841Z,73.80
2019-06-08T13:53:47.844Z,70.30
2019-06-08T13:56:18.965Z,69.10
2019-06-08T13:58:48.422Z,69.20
2019-06-08T14:01:17.620Z,70.30
2019-06-08T14:03:49.805Z,71.20
2019-06-08T14:06:19.082Z,71.50
2019-06-08T14:08:47.903Z,72.50
2019-06-08T14:11:19.601Z,72.00
2019-06-08T14:13:48.089Z,72.70
2019-06-08T14:16:20.183Z,71.00
2019-06-08T14:18:48.608Z,69.30
2019-06-08T14:21:22.134Z,57.80
2019-06-08T14:23:48.433Z,45.70
2019-06-08T14:26:17.628Z,42.90
2019-06-08T14:28:50.293Z,36.60
2019-06-08T14:31:19.765Z,34.40
2019-06-08T14:33:48.449Z,36.90
2019-06-08T14:36:19.726Z,41.40
2019-06-08T14:38:49.442Z,45.90
2019-06-08T14:41:18.253Z,48.30
2019-06-08T14:44:00.651Z,51.00
2019-06-08T14:46:30.395Z,55.80
2019-06-08T14:48:59.096Z,60.60
2019-06-08T14:51:45.094Z,59.90
2019-06-08T14:54:18.494Z,61.70
2019-06-08T14:56:45.771Z,63.80
2019-06-08T14:59:15.019Z,65.60
2019-06-08T15:01:43.836Z,59.50
2019-06-08T15:04:12.283Z,50.90
2019-06-08T15:06:40.711Z,44.00
2019-06-08T15:09:09.204Z,39.70
2019-06-08T15:11:38.175Z,37.50
2019-06-08T15:14:08.540Z,36.40
2019-06-08T15:16:38.574Z,34.40
2019-06-08T15:19:08.146Z,32.90
2019-06-08T15:21:38.087Z,31.70
2019-06-08T15:24:08.106Z,34.70
2019-06-08T15:26:44.543Z,37.80
2019-06-08T15:29:07.498Z,41.00
2019-06-08T15:31:36.179Z,39.80
2019-06-08T15:34:04.726Z,35.80
2019-06-08T15:36:33.211Z,33.30
2019-06-08T15:39:03.631Z,33.50
2019-06-08T15:41:32.807Z,33.20
2019-06-08T15:44:01.283Z,30.80
2019-06-08T15:46:30.410Z,30.00
2019-06-08T15:48:59.059Z,30.20
2019-06-08T15:51:29.703Z,31.80
2019-06-08T15:53:58.021Z,35.40
2019-06-08T15:56:40.496Z,37.80
2019-06-08T15:58:58.440Z,38.30
2019-06-08T16:01:27.315Z,38.40
2019-06-08T16:03:55.848Z,39.20
2019-06-08T16:06:25.699Z,40.90
2019-06-08T16:08:54.339Z,42.40
2019-06-08T16:11:24.005Z,43.90
2019-06-08T16:13:52.677Z,46.10
2019-06-08T16:16:21.090Z,47.10
2019-06-08T16:18:49.538Z,47.50
2019-06-08T16:21:17.962Z,48.60
2019-06-08T16:23:47.470Z,49.50
2019-06-08T16:26:16.149Z,50.20
2019-06-08T16:28:44.594Z,50.60
2019-06-08T16:31:13.010Z,51.40
2019-06-08T16:33:44.165Z,51.50
2019-06-08T16:36:11.587Z,51.50
2019-06-08T16:38:39.994Z,51.90
2019-06-08T16:41:08.454Z,52.30
2019-06-08T16:43:36.889Z,52.80
2019-06-08T16:46:05.327Z,52.80
2019-06-08T16:48:34.589Z,53.40
2019-06-08T16:51:03.178Z,54.10
2019-06-08T16:53:32.467Z,53.90
2019-06-08T16:56:02.208Z,54.30
2019-06-08T16:58:32.081Z,54.90
2019-06-08T17:01:00.983Z,55.40
2019-06-08T17:03:30.707Z,55.60
2019-06-08T17:05:59.491Z,56.10
2019-06-08T17:08:29.397Z,55.70
2019-06-08T17:10:58.013Z,55.40
2019-06-08T17:13:26.485Z,56.20
2019-06-08T17:15:54.977Z,56.40
2019-06-08T17:18:23.509Z,56.90
2019-06-08T17:20:53.601Z,57.10
2019-06-08T17:23:22.093Z,56.60
2019-06-08T17:25:50.642Z,57.90
2019-06-08T17:28:19.202Z,58.00
2019-06-08T17:30:47.754Z,57.00
2019-06-08T17:33:16.241Z,56.30
2019-06-08T17:35:44.834Z,56.50
2019-06-08T17:38:13.378Z,57.30
2019-06-08T17:40:42.421Z,57.00
2019-06-08T17:43:12.417Z,57.50
2019-06-08T17:45:41.250Z,56.40
2019-06-08T17:48:11.244Z,56.60
2019-06-08T17:50:40.783Z,56.90
2019-06-08T17:53:09.679Z,57.10
2019-06-08T17:55:39.456Z,57.70
2019-06-08T17:58:08.060Z,56.50
2019-06-08T18:00:37.470Z,55.70
2019-06-08T18:03:08.216Z,55.10
2019-06-08T18:05:39.360Z,55.40
2019-06-08T18:08:07.853Z,55.60
2019-06-08T18:10:38.513Z,56.00
2019-06-08T18:13:07.379Z,56.60
2019-06-08T18:15:38.626Z,56.30
2019-06-08T18:18:08.418Z,56.00
2019-06-08T18:20:39.182Z,56.10
2019-06-08T18:23:08.145Z,56.20
2019-06-08T18:25:38.557Z,56.40
2019-06-08T18:28:13.238Z,56.90
2019-06-08T18:30:40.420Z,57.20
2019-06-08T18:33:07.448Z,59.00
2019-06-08T18:35:39.380Z,59.80
2019-06-08T18:38:07.310Z,61.40
2019-06-08T18:40:37.919Z,63.00
2019-06-08T18:43:27.551Z,64.50
2019-06-08T18:45:57.638Z,65.90
2019-06-08T18:48:28.076Z,67.10
2019-06-08T18:50:57.212Z,67.80
2019-06-08T18:53:27.189Z,68.70
2019-06-08T18:55:57.969Z,69.50
2019-06-08T18:58:27.813Z,70.60
2019-06-08T19:00:57.522Z,71.30
2019-06-08T19:03:27.889Z,72.00
2019-06-08T19:05:56.414Z,72.60
2019-06-08T19:08:27.671Z,73.40
2019-06-08T19:10:57.345Z,74.60
2019-06-08T19:13:27.139Z,75.50
2019-06-08T19:15:59.630Z,76.30
2019-06-08T19:18:27.222Z,76.80
2019-06-08T19:20:57.687Z,77.30
2019-06-08T19:23:27.980Z,77.80
2019-06-08T19:25:57.838Z,78.00
2019-06-08T19:28:35.887Z,78.60
2019-06-08T19:30:58.321Z,79.00
2019-06-08T19:33:28.019Z,79.20
2019-06-08T19:35:58.382Z,79.50
2019-06-08T19:38:27.850Z,79.80
2019-06-08T19:40:57.352Z,80.20
2019-06-08T19:43:27.780Z,80.50
2019-06-08T19:45:58.082Z,80.70
2019-06-08T19:48:30.682Z,80.90
2019-06-08T19:50:58.172Z,80.70
2019-06-08T19:53:28.645Z,80.90
2019-06-08T19:56:17.347Z,81.00
2019-06-08T19:58:58.437Z,81.20
2019-06-08T20:01:18.212Z,81.10
2019-06-08T20:03:46.994Z,81.60
2019-06-08T20:06:17.574Z,81.50
2019-06-08T20:08:49.714Z,81.30
2019-06-08T20:11:37.266Z,81.30
2019-06-08T20:14:08.046Z,81.10
2019-06-08T20:16:37.252Z,81.10
2019-06-08T20:19:07.968Z,80.90
2019-06-08T20:21:37.998Z,80.40
2019-06-08T20:24:10.105Z,80.20
2019-06-08T20:26:37.464Z,80.20
2019-06-08T20:29:13.515Z,79.30
2019-06-08T20:31:38.506Z,78.80
2019-06-08T20:34:06.997Z,78.80
2019-06-08T20:36:37.583Z,78.60
2019-06-08T20:39:08.155Z,78.80
2019-06-08T20:41:37.679Z,78.90
2019-06-08T20:44:08.334Z,78.90
2019-06-08T20:46:37.759Z,79.20
2019-06-08T20:49:08.373Z,79.50
2019-06-08T20:51:37.513Z,79.90
2019-06-08T20:54:07.930Z,80.90
2019-06-08T20:56:37.168Z,81.40
2019-06-08T20:59:08.018Z,81.80
2019-06-08T21:01:36.044Z,82.20
2019-06-08T21:04:04.614Z,82.30
2019-06-08T21:06:33.048Z,82.90
2019-06-08T21:09:01.485Z,83.50
2019-06-08T21:11:29.905Z,84.20
2019-06-08T21:13:58.334Z,85.00
2019-06-08T21:16:27.662Z,85.80
2019-06-08T21:18:57.916Z,86.50
2019-06-08T21:21:28.339Z,87.40
2019-06-08T21:24:01.142Z,88.10
2019-06-08T21:26:27.284Z,89.10
2019-06-08T21:28:59.659Z,89.90
2019-06-08T21:31:25.848Z,90.20
2019-06-08T21:33:56.700Z,90.50
2019-06-08T21:36:25.105Z,90.60
2019-06-08T21:38:55.697Z,90.70
2019-06-08T21:41:23.758Z,91.20
2019-06-08T21:43:54.757Z,91.50
2019-06-08T21:46:22.477Z,91.80
2019-06-08T21:48:51.953Z,91.90
2019-06-08T21:51:21.333Z,92.10
2019-06-08T21:53:51.118Z,92.20
2019-06-08T21:56:20.065Z,92.30
2019-06-08T21:58:49.737Z,92.60
2019-06-08T22:01:18.993Z,92.90
2019-06-08T22:03:47.402Z,93.20
2019-06-08T22:06:17.695Z,93.30
2019-06-08T22:08:47.992Z,93.40
2019-06-08T22:11:17.711Z,93.60
2019-06-08T22:13:47.679Z,93.70
2019-06-08T22:16:16.408Z,93.80
2019-06-08T22:18:47.319Z,93.80
2019-06-08T22:21:18.037Z,93.90
2019-06-08T22:23:47.490Z,93.90
2019-06-08T22:26:17.644Z,94.10
2019-06-08T22:28:48.043Z,94.10
2019-06-08T22:31:17.079Z,94.10
2019-06-08T22:33:48.153Z,94.50
2019-06-08T22:36:16.967Z,94.20
2019-06-08T22:38:47.619Z,94.60
2019-06-08T22:41:17.396Z,94.70
2019-06-08T22:43:47.967Z,94.70
2019-06-08T22:46:17.787Z,94.90
2019-06-08T22:48:47.740Z,95.00
2019-06-08T22:51:18.260Z,95.20
2019-06-08T22:53:47.798Z,95.30
2019-06-08T22:56:18.278Z,95.40
2019-06-08T22:58:47.923Z,95.50
2019-06-08T23:01:18.406Z,95.70
2019-06-08T23:03:47.641Z,95.60
2019-06-08T23:06:17.713Z,95.70
2019-06-08T23:08:48.048Z,95.80
2019-06-08T23:11:18.028Z,95.90
2019-06-08T23:13:47.248Z,96.00
2019-06-08T23:16:18.006Z,96.10
2019-06-08T23:18:47.767Z,96.20
2019-06-08T23:21:18.070Z,96.40
2019-06-08T23:23:47.733Z,96.60
2019-06-08T23:26:18.303Z,96.70
2019-06-08T23:28:47.174Z,96.90
2019-06-08T23:31:24.286Z,97.00
2019-06-08T23:33:48.270Z,97.20
2019-06-08T23:36:45.528Z,97.30
2019-06-08T23:38:48.119Z,97.40
2019-06-08T23:41:17.742Z,97.50
2019-06-08T23:43:48.039Z,97.60
2019-06-08T23:46:18.123Z,97.70
2019-06-08T23:48:48.435Z,97.70
2019-06-08T23:51:18.072Z,97.70
2019-06-08T23:53:47.844Z,97.70
2019-06-08T23:56:18.343Z,97.70
2019-06-08T23:58:48.260Z,97.80
